sensor_id;sensor_type;location;lat;lon;timestamp;temperature;humidity
60909;DHT22;46780;48.128;-1.704;2023-06-22T00:00:54;21.10;91.80
60909;DHT22;46780;48.128;-1.704;2023-06-22T00:03:22;21.10;91.90
60909;DHT22;46780;48.128;-1.704;2023-06-22T00:05:49;21.10;92.00
60909;DHT22;46780;48.128;-1.704;2023-06-22T00:08:16;21.10;92.10
60909;DHT22;46780;48.128;-1.704;2023-06-22T00:10:44;21.10;92.20
60909;DHT22;46780;48.128;-1.704;2023-06-22T00:13:12;21.10;92.40
60909;DHT22;46780;48.128;-1.704;2023-06-22T00:15:40;21.10;92.50
60909;DHT22;46780;48.128;-1.704;2023-06-22T00:18:08;21.10;92.60
60909;DHT22;46780;48.128;-1.704;2023-06-22T00:20:36;21.10;92.60
60909;DHT22;46780;48.128;-1.704;2023-06-22T00:23:04;21.20;92.70
60909;DHT22;46780;48.128;-1.704;2023-06-22T00:25:30;21.10;92.90
60909;DHT22;46780;48.128;-1.704;2023-06-22T00:27:58;21.10;93.20
60909;DHT22;46780;48.128;-1.704;2023-06-22T00:30:25;21.10;93.40
60909;DHT22;46780;48.128;-1.704;2023-06-22T00:32:51;21.10;93.70
60909;DHT22;46780;48.128;-1.704;2023-06-22T00:35:18;21.10;93.80
60909;DHT22;46780;48.128;-1.704;2023-06-22T00:37:44;21.00;94.20
60909;DHT22;46780;48.128;-1.704;2023-06-22T00:40:11;20.90;94.60
60909;DHT22;46780;48.128;-1.704;2023-06-22T00:42:37;20.90;94.90
60909;DHT22;46780;48.128;-1.704;2023-06-22T00:45:06;20.80;95.10
60909;DHT22;46780;48.128;-1.704;2023-06-22T00:47:34;20.80;95.30
60909;DHT22;46780;48.128;-1.704;2023-06-22T00:50:02;20.80;95.60
60909;DHT22;46780;48.128;-1.704;2023-06-22T00:52:29;20.80;95.70
60909;DHT22;46780;48.128;-1.704;2023-06-22T00:54:56;20.80;95.80
60909;DHT22;46780;48.128;-1.704;2023-06-22T00:57:24;20.80;96.00
60909;DHT22;46780;48.128;-1.704;2023-06-22T00:59:50;20.70;96.10
60909;DHT22;46780;48.128;-1.704;2023-06-22T01:02:18;20.80;96.30
60909;DHT22;46780;48.128;-1.704;2023-06-22T01:04:45;20.70;96.60
60909;DHT22;46780;48.128;-1.704;2023-06-22T01:07:20;20.70;97.20
60909;DHT22;46780;48.128;-1.704;2023-06-22T01:09:53;20.60;97.20
60909;DHT22;46780;48.128;-1.704;2023-06-22T01:12:23;20.60;97.40
60909;DHT22;46780;48.128;-1.704;2023-06-22T01:14:55;20.60;97.50
60909;DHT22;46780;48.128;-1.704;2023-06-22T01:17:24;20.60;97.70
60909;DHT22;46780;48.128;-1.704;2023-06-22T01:19:54;20.60;97.80
60909;DHT22;46780;48.128;-1.704;2023-06-22T01:22:24;20.60;97.90
60909;DHT22;46780;48.128;-1.704;2023-06-22T01:24:57;20.60;98.00
60909;DHT22;46780;48.128;-1.704;2023-06-22T01:27:36;20.50;98.30
60909;DHT22;46780;48.128;-1.704;2023-06-22T01:30:06;20.50;98.80
60909;DHT22;46780;48.128;-1.704;2023-06-22T01:32:34;20.50;98.80
60909;DHT22;46780;48.128;-1.704;2023-06-22T01:35:04;20.50;98.80
60909;DHT22;46780;48.128;-1.704;2023-06-22T01:37:33;20.50;98.90
60909;DHT22;46780;48.128;-1.704;2023-06-22T01:40:01;20.50;98.90
60909;DHT22;46780;48.128;-1.704;2023-06-22T01:42:28;20.50;98.90
60909;DHT22;46780;48.128;-1.704;2023-06-22T01:44:56;20.50;98.90
60909;DHT22;46780;48.128;-1.704;2023-06-22T01:47:24;20.50;98.90
60909;DHT22;46780;48.128;-1.704;2023-06-22T01:49:51;20.60;98.80
60909;DHT22;46780;48.128;-1.704;2023-06-22T01:52:19;20.60;98.70
60909;DHT22;46780;48.128;-1.704;2023-06-22T01:54:45;20.60;98.60
60909;DHT22;46780;48.128;-1.704;2023-06-22T01:57:12;20.60;98.40
60909;DHT22;46780;48.128;-1.704;2023-06-22T01:59:48;20.60;98.30
60909;DHT22;46780;48.128;-1.704;2023-06-22T02:02:20;20.70;98.10
60909;DHT22;46780;48.128;-1.704;2023-06-22T02:04:52;20.60;98.00
60909;DHT22;46780;48.128;-1.704;2023-06-22T02:07:23;20.60;97.90
60909;DHT22;46780;48.128;-1.704;2023-06-22T02:09:51;20.60;97.90
60909;DHT22;46780;48.128;-1.704;2023-06-22T02:12:21;20.60;97.70
60909;DHT22;46780;48.128;-1.704;2023-06-22T02:14:48;20.60;97.60
60909;DHT22;46780;48.128;-1.704;2023-06-22T02:17:17;20.60;97.50
60909;DHT22;46780;48.128;-1.704;2023-06-22T02:19:44;20.50;98.00
60909;DHT22;46780;48.128;-1.704;2023-06-22T02:22:15;20.50;97.50
60909;DHT22;46780;48.128;-1.704;2023-06-22T02:24:41;20.50;97.40
60909;DHT22;46780;48.128;-1.704;2023-06-22T02:27:08;20.50;97.30
60909;DHT22;46780;48.128;-1.704;2023-06-22T02:29:34;20.50;97.20
60909;DHT22;46780;48.128;-1.704;2023-06-22T02:32:01;20.50;97.20
60909;DHT22;46780;48.128;-1.704;2023-06-22T02:34:27;20.50;97.20
60909;DHT22;46780;48.128;-1.704;2023-06-22T02:36:54;20.40;97.10
60909;DHT22;46780;48.128;-1.704;2023-06-22T02:39:22;20.50;97.10
60909;DHT22;46780;48.128;-1.704;2023-06-22T02:41:49;20.40;97.10
60909;DHT22;46780;48.128;-1.704;2023-06-22T02:44:16;20.40;97.00
60909;DHT22;46780;48.128;-1.704;2023-06-22T02:46:43;20.40;97.00
60909;DHT22;46780;48.128;-1.704;2023-06-22T02:49:10;20.40;96.90
60909;DHT22;46780;48.128;-1.704;2023-06-22T02:51:38;20.40;97.00
60909;DHT22;46780;48.128;-1.704;2023-06-22T02:54:05;20.40;96.90
60909;DHT22;46780;48.128;-1.704;2023-06-22T02:56:33;20.50;96.80
60909;DHT22;46780;48.128;-1.704;2023-06-22T02:59:00;20.40;96.70
60909;DHT22;46780;48.128;-1.704;2023-06-22T03:01:26;20.40;96.70
60909;DHT22;46780;48.128;-1.704;2023-06-22T03:03:53;20.40;96.90
60909;DHT22;46780;48.128;-1.704;2023-06-22T03:06:19;20.40;96.90
60909;DHT22;46780;48.128;-1.704;2023-06-22T03:08:46;20.40;96.90
60909;DHT22;46780;48.128;-1.704;2023-06-22T03:11:12;20.40;97.00
60909;DHT22;46780;48.128;-1.704;2023-06-22T03:13:40;20.40;97.10
60909;DHT22;46780;48.128;-1.704;2023-06-22T03:16:07;20.40;97.10
60909;DHT22;46780;48.128;-1.704;2023-06-22T03:18:33;20.40;97.30
60909;DHT22;46780;48.128;-1.704;2023-06-22T03:20:59;20.40;97.30
60909;DHT22;46780;48.128;-1.704;2023-06-22T03:23:26;20.40;97.40
60909;DHT22;46780;48.128;-1.704;2023-06-22T03:25:52;20.30;97.50
60909;DHT22;46780;48.128;-1.704;2023-06-22T03:28:19;20.30;97.60
60909;DHT22;46780;48.128;-1.704;2023-06-22T03:30:47;20.30;97.50
60909;DHT22;46780;48.128;-1.704;2023-06-22T03:33:13;20.40;97.60
60909;DHT22;46780;48.128;-1.704;2023-06-22T03:35:40;20.30;97.50
60909;DHT22;46780;48.128;-1.704;2023-06-22T03:38:06;20.30;97.50
60909;DHT22;46780;48.128;-1.704;2023-06-22T03:40:33;20.30;97.50
60909;DHT22;46780;48.128;-1.704;2023-06-22T03:42:59;20.30;97.50
60909;DHT22;46780;48.128;-1.704;2023-06-22T03:45:25;20.20;97.60
60909;DHT22;46780;48.128;-1.704;2023-06-22T03:47:54;20.20;97.80
60909;DHT22;46780;48.128;-1.704;2023-06-22T03:50:20;20.20;97.90
60909;DHT22;46780;48.128;-1.704;2023-06-22T03:52:46;20.10;98.10
60909;DHT22;46780;48.128;-1.704;2023-06-22T03:55:13;20.10;98.20
60909;DHT22;46780;48.128;-1.704;2023-06-22T03:57:39;20.10;98.30
60909;DHT22;46780;48.128;-1.704;2023-06-22T04:00:07;20.00;98.40
60909;DHT22;46780;48.128;-1.704;2023-06-22T04:02:34;20.00;98.50
60909;DHT22;46780;48.128;-1.704;2023-06-22T04:05:01;20.00;98.60
60909;DHT22;46780;48.128;-1.704;2023-06-22T04:07:28;20.00;98.70
60909;DHT22;46780;48.128;-1.704;2023-06-22T04:09:54;19.90;98.70
60909;DHT22;46780;48.128;-1.704;2023-06-22T04:12:21;19.90;98.70
60909;DHT22;46780;48.128;-1.704;2023-06-22T04:14:47;20.00;98.70
60909;DHT22;46780;48.128;-1.704;2023-06-22T04:17:14;20.00;98.70
60909;DHT22;46780;48.128;-1.704;2023-06-22T04:19:40;19.90;98.80
60909;DHT22;46780;48.128;-1.704;2023-06-22T04:22:08;20.00;98.80
60909;DHT22;46780;48.128;-1.704;2023-06-22T04:24:35;19.90;98.70
60909;DHT22;46780;48.128;-1.704;2023-06-22T04:27:02;19.90;98.70
60909;DHT22;46780;48.128;-1.704;2023-06-22T04:29:29;19.90;98.70
60909;DHT22;46780;48.128;-1.704;2023-06-22T04:31:56;19.90;98.70
60909;DHT22;46780;48.128;-1.704;2023-06-22T04:34:22;19.90;98.70
60909;DHT22;46780;48.128;-1.704;2023-06-22T04:36:49;19.90;98.60
60909;DHT22;46780;48.128;-1.704;2023-06-22T04:39:17;19.90;98.70
60909;DHT22;46780;48.128;-1.704;2023-06-22T04:41:43;19.90;98.60
60909;DHT22;46780;48.128;-1.704;2023-06-22T04:44:10;19.90;98.70
60909;DHT22;46780;48.128;-1.704;2023-06-22T04:46:37;19.90;98.70
60909;DHT22;46780;48.128;-1.704;2023-06-22T04:49:05;19.90;98.80
60909;DHT22;46780;48.128;-1.704;2023-06-22T04:51:32;19.80;99.00
60909;DHT22;46780;48.128;-1.704;2023-06-22T04:53:58;19.80;99.00
60909;DHT22;46780;48.128;-1.704;2023-06-22T04:56:26;19.80;99.00
60909;DHT22;46780;48.128;-1.704;2023-06-22T04:58:53;19.90;99.10
60909;DHT22;46780;48.128;-1.704;2023-06-22T05:01:19;19.80;99.00
60909;DHT22;46780;48.128;-1.704;2023-06-22T05:03:46;19.80;99.10
60909;DHT22;46780;48.128;-1.704;2023-06-22T05:06:12;19.90;99.10
60909;DHT22;46780;48.128;-1.704;2023-06-22T05:08:39;19.80;99.20
60909;DHT22;46780;48.128;-1.704;2023-06-22T05:11:05;19.80;99.10
60909;DHT22;46780;48.128;-1.704;2023-06-22T05:13:33;19.90;99.20
60909;DHT22;46780;48.128;-1.704;2023-06-22T05:15:59;19.90;99.10
60909;DHT22;46780;48.128;-1.704;2023-06-22T05:18:26;19.90;99.00
60909;DHT22;46780;48.128;-1.704;2023-06-22T05:20:52;20.00;98.70
60909;DHT22;46780;48.128;-1.704;2023-06-22T05:23:19;20.00;98.50
60909;DHT22;46780;48.128;-1.704;2023-06-22T05:25:45;20.00;98.30
60909;DHT22;46780;48.128;-1.704;2023-06-22T05:28:12;20.00;98.30
60909;DHT22;46780;48.128;-1.704;2023-06-22T05:30:40;20.10;98.00
60909;DHT22;46780;48.128;-1.704;2023-06-22T05:33:06;20.10;97.90
60909;DHT22;46780;48.128;-1.704;2023-06-22T05:35:33;20.10;97.70
60909;DHT22;46780;48.128;-1.704;2023-06-22T05:37:59;20.20;97.80
60909;DHT22;46780;48.128;-1.704;2023-06-22T05:40:26;20.20;97.60
60909;DHT22;46780;48.128;-1.704;2023-06-22T05:42:52;20.30;97.50
60909;DHT22;46780;48.128;-1.704;2023-06-22T05:45:19;20.40;97.40
60909;DHT22;46780;48.128;-1.704;2023-06-22T05:47:46;20.40;97.70
60909;DHT22;46780;48.128;-1.704;2023-06-22T05:50:13;20.50;97.20
60909;DHT22;46780;48.128;-1.704;2023-06-22T05:52:39;20.60;97.10
60909;DHT22;46780;48.128;-1.704;2023-06-22T05:55:06;20.70;97.10
60909;DHT22;46780;48.128;-1.704;2023-06-22T05:57:33;20.70;97.00
60909;DHT22;46780;48.128;-1.704;2023-06-22T05:59:59;20.70;97.20
60909;DHT22;46780;48.128;-1.704;2023-06-22T06:02:26;20.70;97.20
60909;DHT22;46780;48.128;-1.704;2023-06-22T06:04:54;20.80;97.10
60909;DHT22;46780;48.128;-1.704;2023-06-22T06:07:21;20.90;97.10
60909;DHT22;46780;48.128;-1.704;2023-06-22T06:09:47;20.90;96.90
60909;DHT22;46780;48.128;-1.704;2023-06-22T06:12:14;21.00;96.60
60909;DHT22;46780;48.128;-1.704;2023-06-22T06:14:40;21.10;96.40
60909;DHT22;46780;48.128;-1.704;2023-06-22T06:17:07;21.20;96.30
60909;DHT22;46780;48.128;-1.704;2023-06-22T06:19:33;21.20;96.20
60909;DHT22;46780;48.128;-1.704;2023-06-22T06:22:01;21.30;96.10
60909;DHT22;46780;48.128;-1.704;2023-06-22T06:24:28;21.30;95.90
60909;DHT22;46780;48.128;-1.704;2023-06-22T06:26:54;21.40;95.80
60909;DHT22;46780;48.128;-1.704;2023-06-22T06:29:21;21.50;95.60
60909;DHT22;46780;48.128;-1.704;2023-06-22T06:31:47;21.60;95.30
60909;DHT22;46780;48.128;-1.704;2023-06-22T06:34:14;21.60;95.00
60909;DHT22;46780;48.128;-1.704;2023-06-22T06:36:40;21.70;94.80
60909;DHT22;46780;48.128;-1.704;2023-06-22T06:39:08;21.70;94.50
60909;DHT22;46780;48.128;-1.704;2023-06-22T06:41:34;21.70;94.30
60909;DHT22;46780;48.128;-1.704;2023-06-22T06:44:01;21.70;94.00
60909;DHT22;46780;48.128;-1.704;2023-06-22T06:46:27;21.70;94.10
60909;DHT22;46780;48.128;-1.704;2023-06-22T06:48:54;21.80;94.00
60909;DHT22;46780;48.128;-1.704;2023-06-22T06:51:20;21.80;93.80
60909;DHT22;46780;48.128;-1.704;2023-06-22T06:53:47;21.80;93.90
60909;DHT22;46780;48.128;-1.704;2023-06-22T06:56:15;21.90;93.90
60909;DHT22;46780;48.128;-1.704;2023-06-22T06:58:42;22.00;93.60
60909;DHT22;46780;48.128;-1.704;2023-06-22T07:01:08;22.10;93.50
60909;DHT22;46780;48.128;-1.704;2023-06-22T07:03:35;22.20;93.20
60909;DHT22;46780;48.128;-1.704;2023-06-22T07:06:01;22.30;93.20
60909;DHT22;46780;48.128;-1.704;2023-06-22T07:08:28;22.40;92.40
60909;DHT22;46780;48.128;-1.704;2023-06-22T07:10:55;22.50;92.20
60909;DHT22;46780;48.128;-1.704;2023-06-22T07:13:22;22.50;91.60
60909;DHT22;46780;48.128;-1.704;2023-06-22T07:15:50;22.60;91.20
60909;DHT22;46780;48.128;-1.704;2023-06-22T07:18:16;22.70;90.90
60909;DHT22;46780;48.128;-1.704;2023-06-22T07:20:43;22.80;90.50
60909;DHT22;46780;48.128;-1.704;2023-06-22T07:23:10;22.90;90.20
60909;DHT22;46780;48.128;-1.704;2023-06-22T07:25:36;23.00;89.90
60909;DHT22;46780;48.128;-1.704;2023-06-22T07:28:05;23.00;88.20
60909;DHT22;46780;48.128;-1.704;2023-06-22T07:30:33;23.20;87.50
60909;DHT22;46780;48.128;-1.704;2023-06-22T07:33:00;23.30;86.60
60909;DHT22;46780;48.128;-1.704;2023-06-22T07:35:27;23.30;85.50
60909;DHT22;46780;48.128;-1.704;2023-06-22T07:37:54;23.50;85.20
60909;DHT22;46780;48.128;-1.704;2023-06-22T07:40:21;23.60;84.20
60909;DHT22;46780;48.128;-1.704;2023-06-22T07:42:47;23.70;83.20
60909;DHT22;46780;48.128;-1.704;2023-06-22T07:45:14;23.70;81.90
60909;DHT22;46780;48.128;-1.704;2023-06-22T07:47:42;23.70;80.80
60909;DHT22;46780;48.128;-1.704;2023-06-22T07:50:09;23.60;81.60
60909;DHT22;46780;48.128;-1.704;2023-06-22T07:52:36;23.60;80.70
60909;DHT22;46780;48.128;-1.704;2023-06-22T07:55:03;23.60;80.30
60909;DHT22;46780;48.128;-1.704;2023-06-22T07:57:30;23.80;80.20
60909;DHT22;46780;48.128;-1.704;2023-06-22T07:59:57;23.90;79.20
60909;DHT22;46780;48.128;-1.704;2023-06-22T08:02:23;24.10;78.20
60909;DHT22;46780;48.128;-1.704;2023-06-22T08:04:51;24.10;77.00
60909;DHT22;46780;48.128;-1.704;2023-06-22T08:07:18;24.30;76.90
60909;DHT22;46780;48.128;-1.704;2023-06-22T08:09:47;24.40;75.70
60909;DHT22;46780;48.128;-1.704;2023-06-22T08:12:13;24.50;74.80
60909;DHT22;46780;48.128;-1.704;2023-06-22T08:14:42;24.50;74.60
60909;DHT22;46780;48.128;-1.704;2023-06-22T08:17:09;24.60;73.80
60909;DHT22;46780;48.128;-1.704;2023-06-22T08:19:37;24.70;73.40
60909;DHT22;46780;48.128;-1.704;2023-06-22T08:22:06;24.80;72.20
60909;DHT22;46780;48.128;-1.704;2023-06-22T08:24:32;24.90;70.70
60909;DHT22;46780;48.128;-1.704;2023-06-22T08:26:59;24.90;69.90
60909;DHT22;46780;48.128;-1.704;2023-06-22T08:29:25;25.10;68.70
60909;DHT22;46780;48.128;-1.704;2023-06-22T08:31:52;25.10;67.70
60909;DHT22;46780;48.128;-1.704;2023-06-22T08:34:18;25.20;67.40
60909;DHT22;46780;48.128;-1.704;2023-06-22T08:36:45;25.30;66.20
60909;DHT22;46780;48.128;-1.704;2023-06-22T08:39:13;25.30;66.00
60909;DHT22;46780;48.128;-1.704;2023-06-22T08:41:39;25.30;64.80
60909;DHT22;46780;48.128;-1.704;2023-06-22T08:44:06;25.50;64.10
60909;DHT22;46780;48.128;-1.704;2023-06-22T08:46:32;25.50;62.90
60909;DHT22;46780;48.128;-1.704;2023-06-22T08:48:59;25.50;62.40
60909;DHT22;46780;48.128;-1.704;2023-06-22T08:51:26;25.50;62.50
60909;DHT22;46780;48.128;-1.704;2023-06-22T08:53:53;25.70;62.90
60909;DHT22;46780;48.128;-1.704;2023-06-22T08:56:21;25.90;61.30
60909;DHT22;46780;48.128;-1.704;2023-06-22T08:58:48;26.00;59.20
60909;DHT22;46780;48.128;-1.704;2023-06-22T09:01:14;26.10;59.00
60909;DHT22;46780;48.128;-1.704;2023-06-22T09:03:41;26.20;58.00
60909;DHT22;46780;48.128;-1.704;2023-06-22T09:06:07;26.20;57.50
60909;DHT22;46780;48.128;-1.704;2023-06-22T09:08:34;26.30;57.80
60909;DHT22;46780;48.128;-1.704;2023-06-22T09:11:01;26.50;57.20
60909;DHT22;46780;48.128;-1.704;2023-06-22T09:13:30;26.60;56.40
60909;DHT22;46780;48.128;-1.704;2023-06-22T09:15:57;26.70;55.60
60909;DHT22;46780;48.128;-1.704;2023-06-22T09:18:24;26.70;55.30
60909;DHT22;46780;48.128;-1.704;2023-06-22T09:20:51;26.80;54.60
60909;DHT22;46780;48.128;-1.704;2023-06-22T09:23:18;26.80;54.30
60909;DHT22;46780;48.128;-1.704;2023-06-22T09:25:44;26.80;53.70
60909;DHT22;46780;48.128;-1.704;2023-06-22T09:28:11;26.80;53.30
60909;DHT22;46780;48.128;-1.704;2023-06-22T09:30:39;26.80;52.70
60909;DHT22;46780;48.128;-1.704;2023-06-22T09:33:05;26.80;53.10
60909;DHT22;46780;48.128;-1.704;2023-06-22T09:35:32;26.90;52.60
60909;DHT22;46780;48.128;-1.704;2023-06-22T09:37:58;27.00;52.10
60909;DHT22;46780;48.128;-1.704;2023-06-22T09:40:25;27.10;51.70
60909;DHT22;46780;48.128;-1.704;2023-06-22T09:42:52;27.10;51.90
60909;DHT22;46780;48.128;-1.704;2023-06-22T09:45:19;27.40;51.90
60909;DHT22;46780;48.128;-1.704;2023-06-22T09:47:46;27.60;50.60
60909;DHT22;46780;48.128;-1.704;2023-06-22T09:50:13;27.80;49.10
60909;DHT22;46780;48.128;-1.704;2023-06-22T09:52:39;28.00;48.50
60909;DHT22;46780;48.128;-1.704;2023-06-22T09:55:07;28.20;48.00
60909;DHT22;46780;48.128;-1.704;2023-06-22T09:57:33;28.40;48.10
60909;DHT22;46780;48.128;-1.704;2023-06-22T10:00:00;28.50;47.60
60909;DHT22;46780;48.128;-1.704;2023-06-22T10:02:26;28.60;47.50
60909;DHT22;46780;48.128;-1.704;2023-06-22T10:04:54;28.80;47.00
60909;DHT22;46780;48.128;-1.704;2023-06-22T10:07:21;29.00;46.90
60909;DHT22;46780;48.128;-1.704;2023-06-22T10:09:47;29.20;46.20
60909;DHT22;46780;48.128;-1.704;2023-06-22T10:12:14;29.40;45.00
60909;DHT22;46780;48.128;-1.704;2023-06-22T10:14:40;29.50;44.80
60909;DHT22;46780;48.128;-1.704;2023-06-22T10:17:07;29.70;44.10
60909;DHT22;46780;48.128;-1.704;2023-06-22T10:19:33;29.60;43.00
60909;DHT22;46780;48.128;-1.704;2023-06-22T10:22:01;29.60;43.00
60909;DHT22;46780;48.128;-1.704;2023-06-22T10:24:27;29.50;43.20
60909;DHT22;46780;48.128;-1.704;2023-06-22T10:26:54;29.50;43.30
60909;DHT22;46780;48.128;-1.704;2023-06-22T10:29:20;29.50;43.10
60909;DHT22;46780;48.128;-1.704;2023-06-22T10:31:47;29.40;43.20
60909;DHT22;46780;48.128;-1.704;2023-06-22T10:34:13;29.40;43.40
60909;DHT22;46780;48.128;-1.704;2023-06-22T10:36:40;29.40;43.50
60909;DHT22;46780;48.128;-1.704;2023-06-22T10:39:08;29.40;43.00
60909;DHT22;46780;48.128;-1.704;2023-06-22T10:41:35;29.20;43.10
60909;DHT22;46780;48.128;-1.704;2023-06-22T10:44:01;29.10;43.60
60909;DHT22;46780;48.128;-1.704;2023-06-22T10:46:28;29.00;44.30
60909;DHT22;46780;48.128;-1.704;2023-06-22T10:48:55;29.00;44.60
60909;DHT22;46780;48.128;-1.704;2023-06-22T10:51:21;29.10;44.50
60909;DHT22;46780;48.128;-1.704;2023-06-22T10:53:48;29.20;44.20
60909;DHT22;46780;48.128;-1.704;2023-06-22T10:56:16;29.20;43.70
60909;DHT22;46780;48.128;-1.704;2023-06-22T10:58:44;29.30;43.60
60909;DHT22;46780;48.128;-1.704;2023-06-22T11:01:11;29.40;43.20
60909;DHT22;46780;48.128;-1.704;2023-06-22T11:03:37;29.40;43.00
60909;DHT22;46780;48.128;-1.704;2023-06-22T11:06:04;29.50;42.30
60909;DHT22;46780;48.128;-1.704;2023-06-22T11:08:30;29.50;42.30
60909;DHT22;46780;48.128;-1.704;2023-06-22T11:10:57;29.50;42.40
60909;DHT22;46780;48.128;-1.704;2023-06-22T11:13:25;29.60;41.90
60909;DHT22;46780;48.128;-1.704;2023-06-22T11:15:51;29.60;41.80
60909;DHT22;46780;48.128;-1.704;2023-06-22T11:18:18;29.80;41.60
60909;DHT22;46780;48.128;-1.704;2023-06-22T11:20:44;29.90;40.70
60909;DHT22;46780;48.128;-1.704;2023-06-22T11:23:11;30.00;40.90
60909;DHT22;46780;48.128;-1.704;2023-06-22T11:25:37;30.00;40.60
60909;DHT22;46780;48.128;-1.704;2023-06-22T11:28:04;30.10;40.20
60909;DHT22;46780;48.128;-1.704;2023-06-22T11:30:32;30.10;40.20
60909;DHT22;46780;48.128;-1.704;2023-06-22T11:32:59;30.30;39.70
60909;DHT22;46780;48.128;-1.704;2023-06-22T11:35:26;30.40;40.00
60909;DHT22;46780;48.128;-1.704;2023-06-22T11:37:52;30.50;39.90
60909;DHT22;46780;48.128;-1.704;2023-06-22T11:40:19;30.50;39.70
60909;DHT22;46780;48.128;-1.704;2023-06-22T11:42:45;30.50;39.80
60909;DHT22;46780;48.128;-1.704;2023-06-22T11:45:12;30.50;39.70
60909;DHT22;46780;48.128;-1.704;2023-06-22T11:47:40;30.50;39.60
60909;DHT22;46780;48.128;-1.704;2023-06-22T11:50:08;30.60;39.80
60909;DHT22;46780;48.128;-1.704;2023-06-22T11:52:34;30.70;39.50
60909;DHT22;46780;48.128;-1.704;2023-06-22T11:55:02;30.60;39.30
60909;DHT22;46780;48.128;-1.704;2023-06-22T11:57:32;30.60;39.00
60909;DHT22;46780;48.128;-1.704;2023-06-22T12:00:02;30.70;38.90
60909;DHT22;46780;48.128;-1.704;2023-06-22T12:02:29;30.70;38.80
60909;DHT22;46780;48.128;-1.704;2023-06-22T12:04:57;30.70;39.00
60909;DHT22;46780;48.128;-1.704;2023-06-22T12:07:25;30.50;40.00
60909;DHT22;46780;48.128;-1.704;2023-06-22T12:09:51;30.30;41.30
60909;DHT22;46780;48.128;-1.704;2023-06-22T12:12:18;30.20;41.50
60909;DHT22;46780;48.128;-1.704;2023-06-22T12:14:44;29.90;41.90
60909;DHT22;46780;48.128;-1.704;2023-06-22T12:17:11;29.80;42.50
60909;DHT22;46780;48.128;-1.704;2023-06-22T12:19:37;29.60;42.90
60909;DHT22;46780;48.128;-1.704;2023-06-22T12:22:05;29.50;43.30
60909;DHT22;46780;48.128;-1.704;2023-06-22T12:24:32;29.50;43.80
60909;DHT22;46780;48.128;-1.704;2023-06-22T12:26:58;29.60;43.60
60909;DHT22;46780;48.128;-1.704;2023-06-22T12:29:25;29.80;43.20
60909;DHT22;46780;48.128;-1.704;2023-06-22T12:31:51;29.90;43.20
60909;DHT22;46780;48.128;-1.704;2023-06-22T12:34:18;30.00;43.00
60909;DHT22;46780;48.128;-1.704;2023-06-22T12:36:44;30.00;42.90
60909;DHT22;46780;48.128;-1.704;2023-06-22T12:39:12;30.00;42.90
60909;DHT22;46780;48.128;-1.704;2023-06-22T12:41:39;29.90;43.10
60909;DHT22;46780;48.128;-1.704;2023-06-22T12:44:05;30.00;42.80
60909;DHT22;46780;48.128;-1.704;2023-06-22T12:46:32;30.10;42.30
60909;DHT22;46780;48.128;-1.704;2023-06-22T12:48:58;30.10;42.20
60909;DHT22;46780;48.128;-1.704;2023-06-22T12:51:27;30.20;42.00
60909;DHT22;46780;48.128;-1.704;2023-06-22T12:53:53;30.30;41.50
60909;DHT22;46780;48.128;-1.704;2023-06-22T12:56:21;30.30;40.90
60909;DHT22;46780;48.128;-1.704;2023-06-22T12:58:48;30.30;41.10
60909;DHT22;46780;48.128;-1.704;2023-06-22T13:01:14;30.20;41.40
60909;DHT22;46780;48.128;-1.704;2023-06-22T13:03:42;30.30;40.90
60909;DHT22;46780;48.128;-1.704;2023-06-22T13:06:08;30.40;40.70
60909;DHT22;46780;48.128;-1.704;2023-06-22T13:08:35;30.50;39.90
60909;DHT22;46780;48.128;-1.704;2023-06-22T13:11:01;30.60;39.80
60909;DHT22;46780;48.128;-1.704;2023-06-22T13:13:29;30.60;39.40
60909;DHT22;46780;48.128;-1.704;2023-06-22T13:15:56;30.60;39.00
60909;DHT22;46780;48.128;-1.704;2023-06-22T13:18:22;30.70;38.40
60909;DHT22;46780;48.128;-1.704;2023-06-22T13:20:49;30.70;38.20
60909;DHT22;46780;48.128;-1.704;2023-06-22T13:23:15;30.70;38.10
60909;DHT22;46780;48.128;-1.704;2023-06-22T13:25:42;30.80;37.80
60909;DHT22;46780;48.128;-1.704;2023-06-22T13:28:09;30.70;37.10
60909;DHT22;46780;48.128;-1.704;2023-06-22T13:30:36;30.60;37.20
60909;DHT22;46780;48.128;-1.704;2023-06-22T13:33:03;30.60;37.00
60909;DHT22;46780;48.128;-1.704;2023-06-22T13:35:29;30.50;37.40
60909;DHT22;46780;48.128;-1.704;2023-06-22T13:37:56;30.30;37.10
60909;DHT22;46780;48.128;-1.704;2023-06-22T13:40:23;30.30;37.60
60909;DHT22;46780;48.128;-1.704;2023-06-22T13:42:49;30.20;38.30
60909;DHT22;46780;48.128;-1.704;2023-06-22T13:45:16;30.30;37.30
60909;DHT22;46780;48.128;-1.704;2023-06-22T13:47:44;30.30;37.50
60909;DHT22;46780;48.128;-1.704;2023-06-22T13:50:10;30.40;37.10
60909;DHT22;46780;48.128;-1.704;2023-06-22T13:52:37;30.30;37.20
60909;DHT22;46780;48.128;-1.704;2023-06-22T13:55:04;30.30;37.20
60909;DHT22;46780;48.128;-1.704;2023-06-22T13:57:31;30.20;37.30
60909;DHT22;46780;48.128;-1.704;2023-06-22T13:59:58;30.20;37.40
60909;DHT22;46780;48.128;-1.704;2023-06-22T14:02:26;30.10;37.20
60909;DHT22;46780;48.128;-1.704;2023-06-22T14:04:54;30.10;37.00
60909;DHT22;46780;48.128;-1.704;2023-06-22T14:07:20;30.00;36.60
60909;DHT22;46780;48.128;-1.704;2023-06-22T14:09:47;29.90;36.70
60909;DHT22;46780;48.128;-1.704;2023-06-22T14:12:13;29.80;36.80
60909;DHT22;46780;48.128;-1.704;2023-06-22T14:14:40;29.70;36.70
60909;DHT22;46780;48.128;-1.704;2023-06-22T14:17:06;29.50;36.60
60909;DHT22;46780;48.128;-1.704;2023-06-22T14:19:33;29.40;36.90
60909;DHT22;46780;48.128;-1.704;2023-06-22T14:22:01;29.30;37.40
60909;DHT22;46780;48.128;-1.704;2023-06-22T14:24:28;29.30;37.80
60909;DHT22;46780;48.128;-1.704;2023-06-22T14:26:55;29.20;38.00
60909;DHT22;46780;48.128;-1.704;2023-06-22T14:29:21;29.30;38.60
60909;DHT22;46780;48.128;-1.704;2023-06-22T14:31:49;29.20;38.80
60909;DHT22;46780;48.128;-1.704;2023-06-22T14:34:15;29.20;39.00
60909;DHT22;46780;48.128;-1.704;2023-06-22T14:36:42;29.20;39.20
60909;DHT22;46780;48.128;-1.704;2023-06-22T14:39:11;29.20;39.20
60909;DHT22;46780;48.128;-1.704;2023-06-22T14:41:37;29.10;39.00
60909;DHT22;46780;48.128;-1.704;2023-06-22T14:44:04;29.10;39.40
60909;DHT22;46780;48.128;-1.704;2023-06-22T14:46:30;29.10;39.00
60909;DHT22;46780;48.128;-1.704;2023-06-22T14:48:57;29.00;38.40
60909;DHT22;46780;48.128;-1.704;2023-06-22T14:51:23;29.00;38.50
60909;DHT22;46780;48.128;-1.704;2023-06-22T14:53:50;29.00;38.10
60909;DHT22;46780;48.128;-1.704;2023-06-22T14:56:18;28.90;38.30
60909;DHT22;46780;48.128;-1.704;2023-06-22T14:58:46;28.90;38.50
60909;DHT22;46780;48.128;-1.704;2023-06-22T15:01:13;28.90;38.20
60909;DHT22;46780;48.128;-1.704;2023-06-22T15:03:40;28.90;38.30
60909;DHT22;46780;48.128;-1.704;2023-06-22T15:06:07;28.80;38.30
60909;DHT22;46780;48.128;-1.704;2023-06-22T15:08:34;28.70;38.40
60909;DHT22;46780;48.128;-1.704;2023-06-22T15:11:01;28.70;38.80
60909;DHT22;46780;48.128;-1.704;2023-06-22T15:13:30;28.50;38.60